IBE1056 GCXO-LEZL
Flight info
| Callsign | IBE1056 |
|---|---|
| Flight time | 1h 47m |
| Altitude | 40000 |
| Route | VASTO5J VASTO UN858 AKUDA DCT PESAS N858 OSLEP OSLEP2M |
| Aircraft | A343/H-SDE2E3FGHIJ4J5M1RWXY/LB1D1 |
Departure
| Time | 2026-04-28 03:21 |
|---|---|
| Airport | Tenerife Norte-Ciudad de La Laguna Airport (GCXO) |
Arrival
| Time | 2026-04-28 05:08 |
|---|---|
| Airport | Seville Airport (LEZL) |
| Time | Latitude | Longitude | Altitude | Speed | Heading |
|---|---|---|---|---|---|
| 2026-04-28 02:39 | 28.48684 | -16.34741 | 2078 ft | 0 kts | 36° |
| 2026-04-28 02:54 | 28.48672 | -16.34751 | 2077 ft | 3 kts | 36° |
| 2026-04-28 02:54 | 28.48652 | -16.34768 | 2079 ft | 3 kts | 36° |
| 2026-04-28 02:55 | 28.48633 | -16.34784 | 2080 ft | 3 kts | 36° |
| 2026-04-28 02:55 | 28.48617 | -16.34797 | 2082 ft | 4 kts | 45° |
| 2026-04-28 02:55 | 28.48605 | -16.34818 | 2083 ft | 4 kts | 90° |
| 2026-04-28 02:55 | 28.48610 | -16.34841 | 2085 ft | 4 kts | 110° |
| 2026-04-28 02:56 | 28.48617 | -16.34862 | 2085 ft | 0 kts | 110° |
| 2026-04-28 02:56 | 28.48617 | -16.34861 | 2085 ft | 0 kts | 110° |
| 2026-04-28 02:59 | 28.48616 | -16.34860 | 2085 ft | 1 kts | 110° |
| 2026-04-28 02:59 | 28.48612 | -16.34844 | 2085 ft | 4 kts | 102° |
| 2026-04-28 02:59 | 28.48600 | -16.34799 | 2082 ft | 8 kts | 114° |
| 2026-04-28 02:59 | 28.48581 | -16.34747 | 2079 ft | 1 kts | 112° |
| 2026-04-28 03:00 | 28.48686 | -16.34740 | 2080 ft | 0 kts | 36° |
| 2026-04-28 03:00 | 28.48684 | -16.34741 | 2076 ft | 0 kts | 36° |
| 2026-04-28 03:06 | 28.48669 | -16.34754 | 2079 ft | 3 kts | 36° |
| 2026-04-28 03:06 | 28.48649 | -16.34770 | 2079 ft | 3 kts | 36° |
| 2026-04-28 03:06 | 28.48631 | -16.34786 | 2081 ft | 2 kts | 36° |
| 2026-04-28 03:06 | 28.48614 | -16.34800 | 2082 ft | 3 kts | 50° |
| 2026-04-28 03:07 | 28.48605 | -16.34821 | 2072 ft | 3 kts | 98° |
| 2026-04-28 03:07 | 28.48611 | -16.34845 | 2073 ft | 3 kts | 110° |
| 2026-04-28 03:07 | 28.48617 | -16.34862 | 2086 ft | 0 kts | 110° |
| 2026-04-28 03:10 | 28.48611 | -16.34845 | 2085 ft | 5 kts | 110° |
| 2026-04-28 03:10 | 28.48594 | -16.34791 | 2082 ft | 10 kts | 110° |
| 2026-04-28 03:10 | 28.48562 | -16.34699 | 2074 ft | 15 kts | 111° |
| 2026-04-28 03:11 | 28.48521 | -16.34572 | 2071 ft | 18 kts | 110° |
| 2026-04-28 03:11 | 28.48469 | -16.34416 | 2064 ft | 23 kts | 110° |
| 2026-04-28 03:11 | 28.48412 | -16.34244 | 2057 ft | 18 kts | 110° |
| 2026-04-28 03:11 | 28.48369 | -16.34111 | 2054 ft | 20 kts | 110° |
| 2026-04-28 03:12 | 28.48336 | -16.34009 | 2051 ft | 19 kts | 111° |
| 2026-04-28 03:12 | 28.48279 | -16.33841 | 2047 ft | 18 kts | 110° |
| 2026-04-28 03:12 | 28.48232 | -16.33701 | 2045 ft | 20 kts | 110° |
| 2026-04-28 03:12 | 28.48179 | -16.33543 | 2040 ft | 22 kts | 111° |
| 2026-04-28 03:13 | 28.48124 | -16.33379 | 2043 ft | 20 kts | 110° |
| 2026-04-28 03:13 | 28.48079 | -16.33241 | 2036 ft | 15 kts | 110° |
| 2026-04-28 03:13 | 28.48051 | -16.33156 | 2037 ft | 18 kts | 110° |
| 2026-04-28 03:13 | 28.47991 | -16.32974 | 2032 ft | 18 kts | 110° |
| 2026-04-28 03:14 | 28.47961 | -16.32882 | 2024 ft | 19 kts | 111° |
| 2026-04-28 03:14 | 28.47923 | -16.32769 | 2017 ft | 12 kts | 111° |
| 2026-04-28 03:14 | 28.47906 | -16.32717 | 2016 ft | 0 kts | 111° |
| 2026-04-28 03:19 | 28.47905 | -16.32715 | 2016 ft | 1 kts | 111° |
| 2026-04-28 03:19 | 28.47900 | -16.32702 | 2015 ft | 4 kts | 111° |
| 2026-04-28 03:19 | 28.47871 | -16.32618 | 2013 ft | 18 kts | 116° |
| 2026-04-28 03:19 | 28.47774 | -16.32547 | 2018 ft | 13 kts | 190° |
| 2026-04-28 03:20 | 28.47758 | -16.32608 | 2015 ft | 11 kts | 279° |
| 2026-04-28 03:20 | 28.47808 | -16.32774 | 2032 ft | 41 kts | 290° |
| 2026-04-28 03:20 | 28.47979 | -16.33290 | 2042 ft | 97 kts | 291° |
| 2026-04-28 03:20 | 28.48273 | -16.34172 | 2060 ft | 141 kts | 291° |
| 2026-04-28 03:21 | 28.48640 | -16.35273 | 2477 ft | 151 kts | 292° |
| 2026-04-28 03:21 | 28.49027 | -16.36410 | 3030 ft | 157 kts | 292° |
| 2026-04-28 03:21 | 28.49446 | -16.37630 | 3413 ft | 178 kts | 292° |
| 2026-04-28 03:21 | 28.49933 | -16.39055 | 3653 ft | 208 kts | 292° |
| 2026-04-28 03:22 | 28.50491 | -16.40702 | 3976 ft | 239 kts | 292° |
| 2026-04-28 03:22 | 28.51114 | -16.42547 | 4618 ft | 257 kts | 292° |
| 2026-04-28 03:22 | 28.51758 | -16.44462 | 5530 ft | 262 kts | 293° |
| 2026-04-28 03:22 | 28.52507 | -16.46368 | 6440 ft | 266 kts | 303° |
| 2026-04-28 03:23 | 28.53694 | -16.47974 | 7310 ft | 267 kts | 322° |
| 2026-04-28 03:23 | 28.55356 | -16.48909 | 8218 ft | 269 kts | 348° |
| 2026-04-28 03:23 | 28.57225 | -16.48852 | 9086 ft | 275 kts | 15° |
| 2026-04-28 03:23 | 28.58882 | -16.47721 | 9896 ft | 286 kts | 43° |
| 2026-04-28 03:24 | 28.60180 | -16.45955 | 10505 ft | 300 kts | 50° |
| 2026-04-28 03:24 | 28.61458 | -16.44013 | 10822 ft | 321 kts | 51° |
| 2026-04-28 03:24 | 28.62843 | -16.41920 | 11158 ft | 339 kts | 51° |
| 2026-04-28 03:24 | 28.64314 | -16.39725 | 11757 ft | 348 kts | 50° |
| 2026-04-28 03:25 | 28.65780 | -16.37556 | 12438 ft | 353 kts | 50° |
| 2026-04-28 03:25 | 28.67295 | -16.35324 | 13145 ft | 359 kts | 50° |
| 2026-04-28 03:25 | 28.68829 | -16.33063 | 13866 ft | 363 kts | 50° |
| 2026-04-28 03:25 | 28.70386 | -16.30774 | 14537 ft | 368 kts | 50° |
| 2026-04-28 03:26 | 28.71965 | -16.28455 | 15195 ft | 372 kts | 50° |
| 2026-04-28 03:26 | 28.73562 | -16.26111 | 15849 ft | 377 kts | 50° |
| 2026-04-28 03:26 | 28.75177 | -16.23740 | 16506 ft | 381 kts | 50° |
| 2026-04-28 03:26 | 28.76814 | -16.21337 | 17168 ft | 385 kts | 50° |
| 2026-04-28 03:27 | 28.78470 | -16.18907 | 17823 ft | 390 kts | 50° |
| 2026-04-28 03:27 | 28.80138 | -16.16458 | 18465 ft | 394 kts | 50° |
| 2026-04-28 03:27 | 28.81827 | -16.13973 | 19033 ft | 398 kts | 50° |
| 2026-04-28 03:27 | 28.83529 | -16.11469 | 19606 ft | 402 kts | 50° |
| 2026-04-28 03:28 | 28.85249 | -16.08936 | 20182 ft | 406 kts | 50° |
| 2026-04-28 03:28 | 28.86981 | -16.06385 | 20785 ft | 408 kts | 49° |
| 2026-04-28 03:28 | 28.88728 | -16.03809 | 21336 ft | 412 kts | 49° |
| 2026-04-28 03:28 | 28.90492 | -16.01206 | 21870 ft | 416 kts | 49° |
| 2026-04-28 03:29 | 28.92270 | -15.98583 | 22422 ft | 420 kts | 49° |
| 2026-04-28 03:29 | 28.94069 | -15.95926 | 22945 ft | 424 kts | 49° |
| 2026-04-28 03:29 | 28.95853 | -15.93286 | 23455 ft | 428 kts | 49° |
| 2026-04-28 03:29 | 28.97679 | -15.90583 | 23909 ft | 431 kts | 49° |
| 2026-04-28 03:30 | 28.99520 | -15.87858 | 24311 ft | 435 kts | 49° |
| 2026-04-28 03:30 | 29.01374 | -15.85111 | 24727 ft | 438 kts | 49° |
| 2026-04-28 03:30 | 29.03242 | -15.82342 | 25142 ft | 441 kts | 49° |
| 2026-04-28 03:30 | 29.05121 | -15.79554 | 25549 ft | 444 kts | 49° |
| 2026-04-28 03:31 | 29.07012 | -15.76748 | 25941 ft | 447 kts | 49° |
| 2026-04-28 03:31 | 29.08918 | -15.73916 | 26325 ft | 450 kts | 48° |
| 2026-04-28 03:31 | 29.10833 | -15.71071 | 26719 ft | 453 kts | 48° |
| 2026-04-28 03:31 | 29.12764 | -15.68201 | 27095 ft | 456 kts | 48° |
| 2026-04-28 03:32 | 29.14706 | -15.65316 | 27461 ft | 459 kts | 48° |
| 2026-04-28 03:32 | 29.16659 | -15.62413 | 27808 ft | 463 kts | 48° |
| 2026-04-28 03:32 | 29.18627 | -15.59482 | 28152 ft | 466 kts | 48° |
| 2026-04-28 03:32 | 29.20602 | -15.56538 | 28588 ft | 467 kts | 48° |
| 2026-04-28 03:33 | 29.22582 | -15.53583 | 28994 ft | 469 kts | 48° |
| 2026-04-28 03:33 | 29.24571 | -15.50612 | 29323 ft | 471 kts | 48° |
| 2026-04-28 03:33 | 29.26570 | -15.47621 | 29644 ft | 474 kts | 48° |
| 2026-04-28 03:33 | 29.28580 | -15.44614 | 29987 ft | 477 kts | 48° |
| 2026-04-28 03:34 | 29.30601 | -15.41588 | 30272 ft | 479 kts | 48° |
| 2026-04-28 03:34 | 29.32635 | -15.38540 | 30517 ft | 482 kts | 48° |
| 2026-04-28 03:34 | 29.34673 | -15.35479 | 30768 ft | 485 kts | 48° |
| 2026-04-28 03:34 | 29.36721 | -15.32401 | 31030 ft | 487 kts | 48° |
| 2026-04-28 03:35 | 29.38753 | -15.29349 | 31288 ft | 489 kts | 48° |
| 2026-04-28 03:35 | 29.40821 | -15.26241 | 31549 ft | 491 kts | 48° |
| 2026-04-28 03:35 | 29.42894 | -15.23124 | 31790 ft | 493 kts | 48° |
| 2026-04-28 03:35 | 29.44979 | -15.19986 | 32060 ft | 495 kts | 48° |
| 2026-04-28 03:36 | 29.47063 | -15.16845 | 32410 ft | 494 kts | 48° |
| 2026-04-28 03:36 | 29.49145 | -15.13706 | 32753 ft | 494 kts | 48° |
| 2026-04-28 03:36 | 29.51228 | -15.10563 | 33067 ft | 494 kts | 48° |
| 2026-04-28 03:36 | 29.53310 | -15.07419 | 33429 ft | 494 kts | 49° |
| 2026-04-28 03:37 | 29.55379 | -15.04292 | 33897 ft | 490 kts | 49° |
| 2026-04-28 03:37 | 29.57438 | -15.01180 | 34247 ft | 488 kts | 49° |
| 2026-04-28 03:37 | 29.59493 | -14.98072 | 34501 ft | 488 kts | 48° |
| 2026-04-28 03:37 | 29.61544 | -14.94968 | 34766 ft | 488 kts | 48° |
| 2026-04-28 03:38 | 29.63596 | -14.91863 | 35044 ft | 487 kts | 49° |
| 2026-04-28 03:38 | 29.65616 | -14.88801 | 35291 ft | 487 kts | 48° |
| 2026-04-28 03:38 | 29.67691 | -14.85654 | 35564 ft | 487 kts | 48° |
| 2026-04-28 03:38 | 29.69731 | -14.82555 | 35832 ft | 486 kts | 48° |
| 2026-04-28 03:39 | 29.71771 | -14.79458 | 36092 ft | 485 kts | 48° |
| 2026-04-28 03:39 | 29.73783 | -14.76406 | 36340 ft | 485 kts | 48° |
| 2026-04-28 03:39 | 29.75821 | -14.73313 | 36583 ft | 485 kts | 48° |
| 2026-04-28 03:39 | 29.77853 | -14.70223 | 36829 ft | 484 kts | 48° |
| 2026-04-28 03:40 | 29.79884 | -14.67129 | 37081 ft | 484 kts | 48° |
| 2026-04-28 03:40 | 29.81913 | -14.64035 | 37315 ft | 484 kts | 48° |
| 2026-04-28 03:40 | 29.83941 | -14.60941 | 37553 ft | 483 kts | 48° |
| 2026-04-28 03:40 | 29.85962 | -14.57854 | 37780 ft | 483 kts | 48° |
| 2026-04-28 03:41 | 29.87985 | -14.54762 | 37997 ft | 483 kts | 48° |
| 2026-04-28 03:41 | 29.90010 | -14.51665 | 38184 ft | 483 kts | 48° |
| 2026-04-28 03:41 | 29.92029 | -14.48572 | 38425 ft | 483 kts | 48° |
| 2026-04-28 03:41 | 29.94052 | -14.45472 | 38635 ft | 482 kts | 48° |
| 2026-04-28 03:42 | 29.96066 | -14.42385 | 38822 ft | 482 kts | 48° |
| 2026-04-28 03:42 | 29.98080 | -14.39294 | 38966 ft | 482 kts | 48° |
| 2026-04-28 03:42 | 30.00099 | -14.36193 | 39106 ft | 483 kts | 48° |
| 2026-04-28 03:42 | 30.02088 | -14.33137 | 39230 ft | 483 kts | 48° |
| 2026-04-28 03:43 | 30.04104 | -14.30035 | 39368 ft | 483 kts | 48° |
| 2026-04-28 03:43 | 30.06124 | -14.26926 | 39495 ft | 484 kts | 48° |
| 2026-04-28 03:43 | 30.07490 | -14.24822 | 39588 ft | 484 kts | 48° |
| 2026-04-28 03:44 | 30.14217 | -14.14443 | 39959 ft | 487 kts | 49° |
| 2026-04-28 03:44 | 30.18285 | -14.08153 | 40039 ft | 492 kts | 49° |
| 2026-04-28 03:45 | 30.22377 | -14.01818 | 40037 ft | 490 kts | 49° |
| 2026-04-28 03:45 | 30.26438 | -13.95518 | 40038 ft | 488 kts | 49° |
| 2026-04-28 03:46 | 30.30492 | -13.89222 | 40037 ft | 488 kts | 49° |
| 2026-04-28 03:46 | 30.34543 | -13.82920 | 40042 ft | 488 kts | 49° |
| 2026-04-28 03:47 | 30.38605 | -13.76591 | 40023 ft | 490 kts | 49° |
| 2026-04-28 03:47 | 30.42666 | -13.70255 | 40038 ft | 490 kts | 49° |
| 2026-04-28 03:48 | 30.46725 | -13.63911 | 40028 ft | 490 kts | 49° |
| 2026-04-28 03:48 | 30.50926 | -13.57784 | 40028 ft | 484 kts | 39° |
| 2026-04-28 03:49 | 30.56138 | -13.52960 | 40027 ft | 476 kts | 30° |
| 2026-04-28 03:49 | 30.61619 | -13.48643 | 40024 ft | 475 kts | 28° |
| 2026-04-28 03:50 | 30.67124 | -13.44370 | 40022 ft | 477 kts | 29° |
| 2026-04-28 03:50 | 30.72613 | -13.40038 | 40022 ft | 477 kts | 30° |
| 2026-04-28 03:51 | 30.78093 | -13.35662 | 40019 ft | 477 kts | 30° |
| 2026-04-28 03:51 | 30.83563 | -13.31279 | 40040 ft | 477 kts | 30° |
| 2026-04-28 03:52 | 30.89030 | -13.26894 | 40018 ft | 477 kts | 30° |
| 2026-04-28 03:52 | 30.94497 | -13.22519 | 40017 ft | 476 kts | 30° |
| 2026-04-28 03:53 | 30.99945 | -13.18194 | 40010 ft | 476 kts | 29° |
| 2026-04-28 03:53 | 31.05422 | -13.13846 | 40009 ft | 476 kts | 29° |
| 2026-04-28 03:54 | 31.10902 | -13.09483 | 40011 ft | 477 kts | 30° |
| 2026-04-28 03:54 | 31.16388 | -13.05107 | 39992 ft | 477 kts | 30° |
| 2026-04-28 03:55 | 31.21860 | -13.00734 | 40009 ft | 476 kts | 30° |
| 2026-04-28 03:55 | 31.27327 | -12.96360 | 40009 ft | 476 kts | 30° |
| 2026-04-28 03:56 | 31.32797 | -12.91978 | 39989 ft | 476 kts | 30° |
| 2026-04-28 03:56 | 31.38256 | -12.87598 | 40002 ft | 476 kts | 30° |
| 2026-04-28 03:57 | 31.43726 | -12.83204 | 39998 ft | 476 kts | 30° |
| 2026-04-28 03:57 | 31.49147 | -12.78840 | 39993 ft | 476 kts | 30° |
| 2026-04-28 03:58 | 31.54614 | -12.74434 | 39994 ft | 476 kts | 30° |
| 2026-04-28 03:58 | 31.60076 | -12.70027 | 39991 ft | 477 kts | 30° |
| 2026-04-28 03:59 | 31.65537 | -12.65613 | 39990 ft | 477 kts | 30° |
| 2026-04-28 03:59 | 31.71002 | -12.61189 | 39988 ft | 477 kts | 30° |
| 2026-04-28 04:00 | 31.76467 | -12.56760 | 39992 ft | 477 kts | 30° |
| 2026-04-28 04:00 | 31.81890 | -12.52358 | 39988 ft | 476 kts | 30° |
| 2026-04-28 04:01 | 31.87350 | -12.47920 | 39979 ft | 476 kts | 31° |
| 2026-04-28 04:01 | 31.92804 | -12.43480 | 39980 ft | 477 kts | 31° |
| 2026-04-28 04:02 | 31.97333 | -12.39788 | 39985 ft | 477 kts | 31° |
| 2026-04-28 04:02 | 32.02799 | -12.35340 | 39986 ft | 478 kts | 31° |
| 2026-04-28 04:03 | 32.08271 | -12.30887 | 39979 ft | 478 kts | 31° |
| 2026-04-28 04:03 | 32.13736 | -12.26432 | 39980 ft | 478 kts | 31° |
| 2026-04-28 04:04 | 32.19204 | -12.21967 | 39977 ft | 478 kts | 31° |
| 2026-04-28 04:04 | 32.24670 | -12.17496 | 39977 ft | 478 kts | 31° |
| 2026-04-28 04:05 | 32.30133 | -12.13021 | 39977 ft | 478 kts | 31° |
| 2026-04-28 04:05 | 32.35587 | -12.08548 | 39979 ft | 476 kts | 31° |
| 2026-04-28 04:06 | 32.41029 | -12.04075 | 39977 ft | 476 kts | 32° |
| 2026-04-28 04:06 | 32.46478 | -11.99593 | 39974 ft | 478 kts | 32° |
| 2026-04-28 04:07 | 32.51904 | -11.95122 | 39974 ft | 478 kts | 32° |
| 2026-04-28 04:07 | 32.57364 | -11.90616 | 39974 ft | 478 kts | 32° |
| 2026-04-28 04:08 | 32.62828 | -11.86099 | 39980 ft | 477 kts | 32° |
| 2026-04-28 04:08 | 32.68275 | -11.81590 | 39977 ft | 476 kts | 32° |
| 2026-04-28 04:09 | 32.73704 | -11.77089 | 39975 ft | 476 kts | 32° |
| 2026-04-28 04:09 | 32.79134 | -11.72581 | 39965 ft | 476 kts | 32° |
| 2026-04-28 04:10 | 32.84529 | -11.68095 | 39968 ft | 476 kts | 32° |
| 2026-04-28 04:10 | 32.89958 | -11.63574 | 39971 ft | 476 kts | 32° |
| 2026-04-28 04:11 | 32.95381 | -11.59050 | 39964 ft | 476 kts | 32° |
| 2026-04-28 04:11 | 33.00811 | -11.54514 | 39963 ft | 476 kts | 32° |
| 2026-04-28 04:12 | 33.06239 | -11.49974 | 39963 ft | 476 kts | 32° |
| 2026-04-28 04:12 | 33.11660 | -11.45431 | 39964 ft | 476 kts | 32° |
| 2026-04-28 04:13 | 33.17048 | -11.40910 | 39974 ft | 476 kts | 33° |
| 2026-04-28 04:13 | 33.22451 | -11.36356 | 39968 ft | 475 kts | 33° |
| 2026-04-28 04:14 | 33.27845 | -11.31773 | 39963 ft | 475 kts | 33° |
| 2026-04-28 04:14 | 33.33235 | -11.27188 | 39960 ft | 476 kts | 33° |
| 2026-04-28 04:15 | 33.38619 | -11.22605 | 39957 ft | 471 kts | 33° |
| 2026-04-28 04:16 | 33.46617 | -11.15790 | 39959 ft | 475 kts | 33° |
| 2026-04-28 04:16 | 33.52021 | -11.11179 | 39959 ft | 482 kts | 33° |
| 2026-04-28 04:17 | 33.57522 | -11.06475 | 39946 ft | 489 kts | 34° |
| 2026-04-28 04:17 | 33.63099 | -11.01698 | 39939 ft | 496 kts | 34° |
| 2026-04-28 04:18 | 33.68753 | -10.96847 | 39951 ft | 500 kts | 34° |
| 2026-04-28 04:18 | 33.74405 | -10.91988 | 39942 ft | 498 kts | 34° |
| 2026-04-28 04:19 | 33.80036 | -10.87139 | 39938 ft | 498 kts | 34° |
| 2026-04-28 04:19 | 33.85673 | -10.82279 | 39947 ft | 498 kts | 34° |
| 2026-04-28 04:20 | 33.91268 | -10.77446 | 39950 ft | 498 kts | 34° |
| 2026-04-28 04:20 | 33.96896 | -10.72577 | 39933 ft | 498 kts | 34° |
| 2026-04-28 04:21 | 34.02520 | -10.67704 | 39934 ft | 498 kts | 34° |
| 2026-04-28 04:21 | 34.08143 | -10.62823 | 39933 ft | 498 kts | 34° |
| 2026-04-28 04:22 | 34.13761 | -10.57938 | 39933 ft | 498 kts | 34° |
| 2026-04-28 04:22 | 34.19381 | -10.53043 | 39925 ft | 499 kts | 34° |
| 2026-04-28 04:23 | 34.25017 | -10.48127 | 39928 ft | 500 kts | 34° |
| 2026-04-28 04:23 | 34.30656 | -10.43199 | 39931 ft | 500 kts | 34° |
| 2026-04-28 04:24 | 34.36249 | -10.38306 | 39922 ft | 500 kts | 34° |
| 2026-04-28 04:24 | 34.41878 | -10.33365 | 39920 ft | 500 kts | 35° |
| 2026-04-28 04:25 | 34.47508 | -10.28417 | 39921 ft | 500 kts | 35° |
| 2026-04-28 04:25 | 34.53132 | -10.23468 | 39917 ft | 500 kts | 35° |
| 2026-04-28 04:26 | 34.58760 | -10.18509 | 39914 ft | 500 kts | 35° |
| 2026-04-28 04:26 | 34.64390 | -10.13540 | 39914 ft | 500 kts | 35° |
| 2026-04-28 04:27 | 34.70022 | -10.08587 | 39912 ft | 500 kts | 35° |
| 2026-04-28 04:27 | 34.75658 | -10.03634 | 39911 ft | 500 kts | 35° |
| 2026-04-28 04:28 | 34.81288 | -9.98668 | 39911 ft | 500 kts | 35° |
| 2026-04-28 04:28 | 34.86882 | -9.93724 | 39907 ft | 500 kts | 35° |
| 2026-04-28 04:29 | 34.92508 | -9.88745 | 39903 ft | 500 kts | 35° |
| 2026-04-28 04:29 | 34.98137 | -9.83756 | 39903 ft | 500 kts | 35° |
| 2026-04-28 04:30 | 35.03762 | -9.78762 | 39905 ft | 500 kts | 35° |
| 2026-04-28 04:30 | 35.09393 | -9.73754 | 39906 ft | 501 kts | 35° |
| 2026-04-28 04:31 | 35.15023 | -9.68739 | 39905 ft | 501 kts | 36° |
| 2026-04-28 04:31 | 35.20649 | -9.63717 | 39897 ft | 500 kts | 36° |
| 2026-04-28 04:32 | 35.26266 | -9.58696 | 39898 ft | 500 kts | 36° |
| 2026-04-28 04:32 | 35.31884 | -9.53664 | 39898 ft | 500 kts | 36° |
| 2026-04-28 04:33 | 35.37503 | -9.48623 | 39895 ft | 500 kts | 36° |
| 2026-04-28 04:33 | 35.43118 | -9.43576 | 39894 ft | 500 kts | 36° |
| 2026-04-28 04:34 | 35.48727 | -9.38540 | 39889 ft | 500 kts | 36° |
| 2026-04-28 04:34 | 35.54339 | -9.33499 | 39889 ft | 500 kts | 36° |
| 2026-04-28 04:35 | 35.59942 | -9.28444 | 39892 ft | 500 kts | 36° |
| 2026-04-28 04:35 | 35.65540 | -9.23377 | 39887 ft | 500 kts | 36° |
| 2026-04-28 04:36 | 35.71104 | -9.18331 | 39887 ft | 500 kts | 36° |
| 2026-04-28 04:36 | 35.76698 | -9.13250 | 39887 ft | 500 kts | 36° |
| 2026-04-28 04:37 | 35.82288 | -9.08162 | 39887 ft | 500 kts | 36° |
| 2026-04-28 04:37 | 35.87875 | -9.03068 | 39886 ft | 499 kts | 36° |
| 2026-04-28 04:38 | 35.93459 | -8.97969 | 39890 ft | 500 kts | 36° |
| 2026-04-28 04:38 | 35.98611 | -8.92217 | 39887 ft | 501 kts | 47° |
| 2026-04-28 04:39 | 36.03233 | -8.85767 | 39882 ft | 502 kts | 49° |
| 2026-04-28 04:39 | 36.07765 | -8.79197 | 39881 ft | 502 kts | 49° |
| 2026-04-28 04:40 | 36.12297 | -8.72622 | 39884 ft | 502 kts | 49° |
| 2026-04-28 04:40 | 36.16838 | -8.66060 | 39883 ft | 501 kts | 49° |
| 2026-04-28 04:41 | 36.21337 | -8.59563 | 39761 ft | 497 kts | 49° |
| 2026-04-28 04:41 | 36.23594 | -8.56299 | 39531 ft | 489 kts | 49° |
| 2026-04-28 04:41 | 36.25762 | -8.53161 | 39309 ft | 482 kts | 49° |
| 2026-04-28 04:41 | 36.27929 | -8.50022 | 39093 ft | 476 kts | 49° |
| 2026-04-28 04:42 | 36.30070 | -8.46915 | 38756 ft | 472 kts | 49° |
| 2026-04-28 04:42 | 36.32207 | -8.43813 | 38194 ft | 473 kts | 49° |
| 2026-04-28 04:42 | 36.34339 | -8.40715 | 37624 ft | 472 kts | 49° |
| 2026-04-28 04:42 | 36.36467 | -8.37622 | 37075 ft | 472 kts | 50° |
| 2026-04-28 04:43 | 36.38600 | -8.34517 | 36515 ft | 472 kts | 50° |
| 2026-04-28 04:43 | 36.40728 | -8.31415 | 35920 ft | 472 kts | 50° |
| 2026-04-28 04:43 | 36.42861 | -8.28305 | 35319 ft | 473 kts | 50° |
| 2026-04-28 04:43 | 36.45000 | -8.25183 | 34662 ft | 476 kts | 50° |
| 2026-04-28 04:44 | 36.47147 | -8.22046 | 34013 ft | 478 kts | 50° |
| 2026-04-28 04:44 | 36.49313 | -8.18879 | 33238 ft | 481 kts | 50° |
| 2026-04-28 04:44 | 36.51479 | -8.15708 | 32521 ft | 482 kts | 50° |
| 2026-04-28 04:44 | 36.53651 | -8.12525 | 31800 ft | 483 kts | 50° |
| 2026-04-28 04:45 | 36.55825 | -8.09337 | 31139 ft | 482 kts | 50° |
| 2026-04-28 04:45 | 36.57981 | -8.06173 | 30672 ft | 477 kts | 50° |
| 2026-04-28 04:45 | 36.60119 | -8.03033 | 30175 ft | 473 kts | 50° |
| 2026-04-28 04:45 | 36.62209 | -7.99959 | 29647 ft | 469 kts | 50° |
| 2026-04-28 04:46 | 36.64302 | -7.96877 | 29122 ft | 464 kts | 50° |
| 2026-04-28 04:46 | 36.66377 | -7.93820 | 28605 ft | 459 kts | 50° |
| 2026-04-28 04:46 | 36.68426 | -7.90798 | 28114 ft | 455 kts | 50° |
| 2026-04-28 04:46 | 36.70455 | -7.87802 | 27604 ft | 451 kts | 50° |
| 2026-04-28 04:47 | 36.72469 | -7.84826 | 27102 ft | 446 kts | 50° |
| 2026-04-28 04:47 | 36.74462 | -7.81878 | 26636 ft | 443 kts | 50° |
| 2026-04-28 04:47 | 36.76435 | -7.78957 | 26122 ft | 439 kts | 50° |
| 2026-04-28 04:47 | 36.78399 | -7.76047 | 25622 ft | 437 kts | 50° |
| 2026-04-28 04:48 | 36.80345 | -7.73161 | 25116 ft | 434 kts | 50° |
| 2026-04-28 04:48 | 36.82283 | -7.70285 | 24655 ft | 431 kts | 50° |
| 2026-04-28 04:48 | 36.84204 | -7.67431 | 24159 ft | 428 kts | 50° |
| 2026-04-28 04:48 | 36.86111 | -7.64596 | 23661 ft | 426 kts | 50° |
| 2026-04-28 04:49 | 36.88012 | -7.61766 | 23131 ft | 423 kts | 50° |
| 2026-04-28 04:49 | 36.89896 | -7.58961 | 22641 ft | 419 kts | 50° |
| 2026-04-28 04:49 | 36.91759 | -7.56185 | 22172 ft | 415 kts | 50° |
| 2026-04-28 04:49 | 36.93605 | -7.53430 | 21697 ft | 411 kts | 50° |
| 2026-04-28 04:50 | 36.95437 | -7.50695 | 21226 ft | 408 kts | 50° |
| 2026-04-28 04:50 | 36.96638 | -7.48901 | 20907 ft | 406 kts | 50° |
| 2026-04-28 04:50 | 36.98442 | -7.46205 | 20453 ft | 402 kts | 50° |
| 2026-04-28 04:50 | 37.00230 | -7.43530 | 19995 ft | 399 kts | 51° |
| 2026-04-28 04:51 | 37.02004 | -7.40873 | 19524 ft | 397 kts | 50° |
| 2026-04-28 04:51 | 37.03769 | -7.38227 | 19083 ft | 394 kts | 51° |
| 2026-04-28 04:51 | 37.05526 | -7.35609 | 18629 ft | 392 kts | 50° |
| 2026-04-28 04:51 | 37.07276 | -7.33008 | 18164 ft | 390 kts | 50° |
| 2026-04-28 04:52 | 37.09015 | -7.30423 | 17679 ft | 387 kts | 50° |
| 2026-04-28 04:52 | 37.10740 | -7.27856 | 17226 ft | 383 kts | 50° |
| 2026-04-28 04:52 | 37.12454 | -7.25305 | 16758 ft | 380 kts | 50° |
| 2026-04-28 04:52 | 37.14148 | -7.22780 | 16315 ft | 377 kts | 50° |
| 2026-04-28 04:53 | 37.15784 | -7.20213 | 15868 ft | 375 kts | 56° |
| 2026-04-28 04:53 | 37.16889 | -7.17334 | 15440 ft | 371 kts | 73° |
| 2026-04-28 04:53 | 37.17550 | -7.14219 | 14978 ft | 369 kts | 78° |
| 2026-04-28 04:53 | 37.18183 | -7.11115 | 14623 ft | 365 kts | 75° |
| 2026-04-28 04:54 | 37.18893 | -7.08028 | 13883 ft | 374 kts | 74° |
| 2026-04-28 04:54 | 37.19642 | -7.04890 | 13146 ft | 375 kts | 74° |
| 2026-04-28 04:54 | 37.20402 | -7.01776 | 12635 ft | 372 kts | 73° |
| 2026-04-28 04:54 | 37.21162 | -6.98692 | 12184 ft | 369 kts | 73° |
| 2026-04-28 04:55 | 37.21917 | -6.95631 | 11736 ft | 366 kts | 73° |
| 2026-04-28 04:55 | 37.22662 | -6.92598 | 11300 ft | 363 kts | 73° |
| 2026-04-28 04:55 | 37.23402 | -6.89579 | 10844 ft | 360 kts | 73° |
| 2026-04-28 04:55 | 37.24132 | -6.86591 | 10417 ft | 357 kts | 73° |
| 2026-04-28 04:56 | 37.24847 | -6.83660 | 10269 ft | 345 kts | 73° |
| 2026-04-28 04:56 | 37.25533 | -6.80840 | 10158 ft | 332 kts | 73° |
| 2026-04-28 04:56 | 37.26194 | -6.78118 | 10028 ft | 318 kts | 73° |
| 2026-04-28 04:56 | 37.26819 | -6.75549 | 9892 ft | 299 kts | 73° |
| 2026-04-28 04:57 | 37.27417 | -6.73063 | 9523 ft | 298 kts | 74° |
| 2026-04-28 04:57 | 37.28008 | -6.70564 | 9197 ft | 297 kts | 75° |
| 2026-04-28 04:57 | 37.28591 | -6.68083 | 8894 ft | 295 kts | 75° |
| 2026-04-28 04:57 | 37.29169 | -6.65618 | 8591 ft | 293 kts | 75° |
| 2026-04-28 04:58 | 37.29744 | -6.63175 | 8293 ft | 291 kts | 75° |
| 2026-04-28 04:58 | 37.30315 | -6.60750 | 7998 ft | 288 kts | 75° |
| 2026-04-28 04:58 | 37.30882 | -6.58346 | 7685 ft | 286 kts | 76° |
| 2026-04-28 04:58 | 37.31450 | -6.55960 | 7394 ft | 284 kts | 76° |
| 2026-04-28 04:59 | 37.32011 | -6.53585 | 7105 ft | 282 kts | 76° |
| 2026-04-28 04:59 | 37.32557 | -6.51260 | 6821 ft | 280 kts | 76° |
| 2026-04-28 04:59 | 37.33105 | -6.48923 | 6519 ft | 278 kts | 77° |
| 2026-04-28 04:59 | 37.33648 | -6.46604 | 6223 ft | 275 kts | 77° |
| 2026-04-28 05:00 | 37.34189 | -6.44286 | 5835 ft | 277 kts | 77° |
| 2026-04-28 05:00 | 37.34731 | -6.41963 | 5485 ft | 276 kts | 76° |
| 2026-04-28 05:00 | 37.35269 | -6.39657 | 5176 ft | 274 kts | 76° |
| 2026-04-28 05:00 | 37.35804 | -6.37366 | 4859 ft | 272 kts | 75° |
| 2026-04-28 05:01 | 37.36335 | -6.35093 | 4550 ft | 270 kts | 75° |
| 2026-04-28 05:01 | 37.36860 | -6.32844 | 4225 ft | 267 kts | 75° |
| 2026-04-28 05:01 | 37.37381 | -6.30615 | 3921 ft | 264 kts | 75° |
| 2026-04-28 05:01 | 37.37896 | -6.28405 | 3610 ft | 262 kts | 74° |
| 2026-04-28 05:02 | 37.38401 | -6.26239 | 3461 ft | 254 kts | 74° |
| 2026-04-28 05:02 | 37.38888 | -6.24146 | 3353 ft | 245 kts | 74° |
| 2026-04-28 05:02 | 37.39357 | -6.22128 | 3238 ft | 235 kts | 74° |
| 2026-04-28 05:02 | 37.39801 | -6.20214 | 3092 ft | 221 kts | 74° |
| 2026-04-28 05:03 | 37.40216 | -6.18433 | 2956 ft | 210 kts | 73° |
| 2026-04-28 05:03 | 37.40614 | -6.16706 | 2859 ft | 202 kts | 73° |
| 2026-04-28 05:03 | 37.40999 | -6.15030 | 2721 ft | 197 kts | 73° |
| 2026-04-28 05:03 | 37.41376 | -6.13392 | 2573 ft | 190 kts | 73° |
| 2026-04-28 05:04 | 37.41653 | -6.11811 | 2381 ft | 183 kts | 83° |
| 2026-04-28 05:04 | 37.41694 | -6.10229 | 2154 ft | 177 kts | 89° |
| 2026-04-28 05:04 | 37.41704 | -6.08728 | 2026 ft | 166 kts | 89° |
| 2026-04-28 05:04 | 37.41709 | -6.07298 | 1998 ft | 163 kts | 88° |
| 2026-04-28 05:05 | 37.41720 | -6.05871 | 1998 ft | 163 kts | 88° |
| 2026-04-28 05:05 | 37.41733 | -6.04441 | 1994 ft | 163 kts | 88° |
| 2026-04-28 05:05 | 37.41744 | -6.03022 | 1954 ft | 160 kts | 88° |
| 2026-04-28 05:05 | 37.41749 | -6.01668 | 1762 ft | 150 kts | 89° |
| 2026-04-28 05:06 | 37.41753 | -6.00397 | 1553 ft | 141 kts | 88° |
| 2026-04-28 05:06 | 37.41757 | -5.99168 | 1361 ft | 141 kts | 89° |
| 2026-04-28 05:06 | 37.41762 | -5.97935 | 1172 ft | 141 kts | 88° |
| 2026-04-28 05:06 | 37.41766 | -5.96703 | 981 ft | 141 kts | 89° |
| 2026-04-28 05:07 | 37.41770 | -5.95473 | 819 ft | 140 kts | 89° |
| 2026-04-28 05:07 | 37.41775 | -5.94249 | 633 ft | 140 kts | 89° |
| 2026-04-28 05:07 | 37.41779 | -5.93031 | 412 ft | 139 kts | 89° |
| 2026-04-28 05:07 | 37.41784 | -5.91823 | 218 ft | 137 kts | 89° |
| 2026-04-28 05:08 | 37.41790 | -5.90639 | 101 ft | 127 kts | 90° |
| 2026-04-28 05:08 | 37.41794 | -5.89758 | 102 ft | 75 kts | 90° |
| 2026-04-28 05:08 | 37.41795 | -5.89349 | 104 ft | 15 kts | 90° |
| 2026-04-28 05:08 | 37.41804 | -5.89262 | 106 ft | 6 kts | 55° |
| 2026-04-28 05:09 | 37.41841 | -5.89259 | 106 ft | 6 kts | 346° |
| 2026-04-28 05:09 | 37.41886 | -5.89287 | 104 ft | 8 kts | 332° |
| 2026-04-28 05:09 | 37.41933 | -5.89320 | 104 ft | 6 kts | 330° |
| 2026-04-28 05:09 | 37.41977 | -5.89353 | 104 ft | 8 kts | 326° |
| 2026-04-28 05:10 | 37.42023 | -5.89407 | 105 ft | 10 kts | 313° |
| 2026-04-28 05:10 | 37.42078 | -5.89481 | 103 ft | 13 kts | 314° |
| 2026-04-28 05:10 | 37.42130 | -5.89547 | 103 ft | 8 kts | 314° |
| 2026-04-28 05:10 | 37.42175 | -5.89604 | 101 ft | 11 kts | 314° |
| 2026-04-28 05:11 | 37.42232 | -5.89677 | 102 ft | 10 kts | 315° |
| 2026-04-28 05:11 | 37.42275 | -5.89720 | 100 ft | 6 kts | 333° |
| 2026-04-28 05:11 | 37.42302 | -5.89742 | 102 ft | 5 kts | 320° |
| 2026-04-28 05:11 | 37.42322 | -5.89766 | 98 ft | 1 kts | 315° |
| 2026-04-28 05:12 | 37.42330 | -5.89776 | 98 ft | 2 kts | 315° |
| 2026-04-28 05:12 | 37.42334 | -5.89782 | 100 ft | 0 kts | 315° |